Time;durP1;ratioP1;P1;durP2;ratioP2;P2;SDS_P1;SDS_P2;PMS_P1;PMS_P2;Temp;Humidity;BMP_temperature;BMP_pressure;BME280_temperature;BME280_humidity;BME280_pressure;Samples;Min_cycle;Max_cycle;Signal;HPM_P1;HPM_P2
2021/01/15 00:01:46;;;;;;;8.35;4.40;;;;;;;25.95;28.41;96428.69;4967202;28;20143;-68
2021/01/15 00:04:11;;;;;;;7.93;4.28;;;;;;;25.87;28.55;96425.69;4981259;28;20088;-69
2021/01/15 00:06:37;;;;;;;9.18;4.45;;;;;;;25.95;28.58;96428.69;4967326;28;20049;-68
2021/01/15 00:09:03;;;;;;;8.65;4.50;;;;;;;25.93;28.51;96434.03;4968477;28;20612;-70
2021/01/15 00:11:30;;;;;;;6.20;4.18;;;;;;;25.95;28.51;96428.69;4972421;28;20054;-70
2021/01/15 00:13:55;;;;;;;6.95;4.00;;;;;;;25.92;28.41;96423.63;4970939;28;20470;-68
2021/01/15 00:16:26;;;;;;;6.90;4.20;;;;;;;25.94;28.23;96437.50;4972237;28;20048;-70
2021/01/15 00:18:52;;;;;;;7.47;4.38;;;;;;;25.93;28.56;96436.66;4986721;28;20466;-70
2021/01/15 00:21:25;;;;;;;7.22;3.80;;;;;;;25.94;28.39;96437.50;4989400;28;20061;-70
2021/01/15 00:24:03;;;;;;;7.90;4.07;;;;;;;25.85;28.35;96422.31;4991856;28;20064;-70
2021/01/15 00:26:29;;;;;;;6.25;3.90;;;;;;;25.86;28.30;96435.34;4984168;28;20739;-70
2021/01/15 00:28:55;;;;;;;6.75;3.83;;;;;;;25.90;28.22;96441.25;4968356;28;20087;-69
2021/01/15 00:31:28;;;;;;;6.25;3.80;;;;;;;25.89;28.21;96443.03;4968558;28;20064;-70
2021/01/15 00:33:57;;;;;;;8.25;4.25;;;;;;;25.90;28.37;96446.50;5008594;28;20181;-69
2021/01/15 00:36:22;;;;;;;6.05;3.60;;;;;;;25.88;28.20;96437.84;4973410;28;20041;-69
2021/01/15 00:38:48;;;;;;;7.30;3.70;;;;;;;25.85;28.08;96438.06;4972228;28;20033;-69
2021/01/15 00:41:13;;;;;;;8.43;3.70;;;;;;;25.89;28.14;96450.06;4991833;28;20538;-70
2021/01/15 00:43:39;;;;;;;7.28;4.25;;;;;;;25.87;28.08;96451.94;4969236;28;20085;-71
2021/01/15 00:46:10;;;;;;;5.97;3.60;;;;;;;25.85;28.24;96443.31;4971037;28;20057;-70
2021/01/15 00:48:36;;;;;;;7.15;3.75;;;;;;;25.85;28.33;96445.94;4987825;28;20084;-70
2021/01/15 00:51:11;;;;;;;5.88;3.53;;;;;;;25.83;28.13;96446.84;4992607;28;20045;-70
2021/01/15 00:53:37;;;;;;;;;;;;;;;25.80;28.04;96441.81;4987411;28;20041;-70
2021/01/15 00:56:02;;;;;;;5.57;3.47;;;;;;;25.77;28.26;96441.97;4989056;28;19956;-70
2021/01/15 00:58:28;;;;;;;5.00;3.47;;;;;;;25.76;28.18;96442.91;4972615;28;20095;-69
2021/01/15 01:00:57;;;;;;;5.55;3.47;;;;;;;25.77;28.06;96447.22;4970028;28;20030;-70
2021/01/15 01:03:26;;;;;;;7.25;3.30;;;;;;;25.77;28.19;96457.72;5016241;28;20037;-68
2021/01/15 01:05:52;;;;;;;7.07;3.20;;;;;;;25.76;28.22;96453.41;4974019;28;20095;-69
2021/01/15 01:08:21;;;;;;;4.90;3.35;;;;;;;25.77;28.19;96459.50;4972963;28;20099;-70
2021/01/15 01:10:46;;;;;;;5.15;3.17;;;;;;;25.76;28.21;96458.66;4987482;28;20045;-69
2021/01/15 01:13:15;;;;;;;4.90;3.10;;;;;;;25.79;28.27;96469.00;4970135;28;20060;-70
2021/01/15 01:15:44;;;;;;;4.43;3.20;;;;;;;25.77;28.06;96468.22;4986381;28;20055;-70
2021/01/15 01:18:13;;;;;;;4.78;3.17;;;;;;;25.80;28.11;96472.44;5005155;28;20041;-68
2021/01/15 01:20:39;;;;;;;5.10;3.25;;;;;;;25.78;27.86;96472.53;4971869;28;20033;-70
2021/01/15 01:23:11;;;;;;;5.60;3.20;;;;;;;25.78;28.11;96474.31;4973770;28;20041;-70
2021/01/15 01:25:37;;;;;;;6.53;3.17;;;;;;;25.76;27.98;96476.19;4988252;28;20048;-71
2021/01/15 01:28:10;;;;;;;5.57;2.90;;;;;;;25.72;28.16;96466.78;4967050;28;20410;-69
2021/01/15 01:30:41;;;;;;;5.15;3.03;;;;;;;25.76;28.32;96486.69;4999732;28;20459;-69
2021/01/15 01:33:06;;;;;;;5.30;2.90;;;;;;;25.76;27.95;96478.81;5014023;28;20049;-69
2021/01/15 01:35:32;;;;;;;5.38;2.95;;;;;;;25.73;27.99;96471.94;4969190;28;20037;-70
2021/01/15 01:37:57;;;;;;;5.07;3.00;;;;;;;25.75;27.74;96480.59;4986098;28;20533;-70
2021/01/15 01:40:30;;;;;;;4.93;3.20;;;;;;;25.75;28.02;96480.59;4993828;28;20041;-69
2021/01/15 01:42:55;;;;;;;5.20;2.78;;;;;;;25.72;28.37;96472.91;5001302;28;20481;-69
2021/01/15 01:45:20;;;;;;;4.53;2.90;;;;;;;25.72;28.08;96474.66;4984963;28;20455;-69
2021/01/15 01:47:46;;;;;;;8.20;2.58;;;;;;;25.74;28.13;96494.63;4969989;28;20048;-69
2021/01/15 01:50:11;;;;;;;4.70;2.90;;;;;;;25.75;28.43;96490.25;4994844;28;20045;-70
2021/01/15 01:52:37;;;;;;;5.55;2.97;;;;;;;25.61;28.16;96464.78;4981896;28;20087;-70
2021/01/15 01:55:06;;;;;;;4.97;2.65;;;;;;;25.75;28.14;96491.09;4985794;28;20040;-69
2021/01/15 01:57:35;;;;;;;5.07;3.00;;;;;;;25.75;27.91;96490.25;4989787;28;20099;-70
2021/01/15 02:00:02;;;;;;;5.38;2.80;;;;;;;25.73;28.10;96492.94;4979708;28;20038;-70
2021/01/15 02:02:28;;;;;;;4.75;2.47;;;;;;;25.72;28.12;96501.75;4991774;28;20176;-70
2021/01/15 02:04:57;;;;;;;4.25;2.72;;;;;;;25.70;28.20;96507.09;4982157;28;20025;-69
2021/01/15 02:07:26;;;;;;;4.88;2.40;;;;;;;25.71;28.26;96502.69;4984576;28;20785;-69
2021/01/15 02:09:59;;;;;;;6.47;2.70;;;;;;;25.69;28.23;96494.06;4986390;28;20052;-71
2021/01/15 02:13:23;;;;;;;3.28;2.08;;;;;;;25.69;28.25;96515.06;5000342;28;20029;-70
2021/01/15 02:16:01;;;;;;;5.43;2.38;;;;;;;25.65;28.48;96505.66;4913222;29;20594;-69
2021/01/15 02:18:40;;;;;;;3.65;2.50;;;;;;;25.71;28.46;96510.56;4987459;28;20044;-68
2021/01/15 02:21:30;;;;;;;3.42;2.13;;;;;;;25.72;28.20;96514.03;4981596;28;20962;-70
2021/01/15 02:24:37;;;;;;;3.38;2.10;;;;;;;25.73;28.29;96513.94;4995507;28;20038;-70
2021/01/15 02:27:18;;;;;;;4.22;2.60;;;;;;;25.71;28.24;96515.81;4996136;28;20037;-70
2021/01/15 02:30:01;;;;;;;3.78;2.47;;;;;;;25.69;28.10;96518.53;5001151;28;20045;-69
2021/01/15 02:32:33;;;;;;;5.53;2.38;;;;;;;25.64;28.08;96509.22;4983529;28;20041;-70
2021/01/15 02:35:23;;;;;;;3.33;2.00;;;;;;;25.68;28.33;96516.00;5006865;28;20075;-70
2021/01/15 02:38:06;;;;;;;3.97;2.45;;;;;;;25.62;28.22;96509.31;4987609;28;22946;-70
2021/01/15 02:41:23;;;;;;;4.30;2.42;;;;;;;25.66;28.17;96518.69;4995121;28;20033;-70
2021/01/15 02:43:56;;;;;;;5.68;2.60;;;;;;;25.68;28.38;96527.34;4917403;29;20134;-70
2021/01/15 02:46:35;;;;;;;4.07;2.17;;;;;;;25.69;28.42;96522.91;4886439;29;20051;-70
2021/01/15 02:49:01;;;;;;;3.17;2.15;;;;;;;25.69;28.23;96523.78;4988194;28;20919;-70
2021/01/15 02:51:26;;;;;;;4.75;2.20;;;;;;;25.69;28.15;96525.53;4980849;28;20041;-69
2021/01/15 02:53:52;;;;;;;4.32;2.40;;;;;;;25.69;28.22;96529.03;4970858;28;20037;-68
2021/01/15 02:56:21;;;;;;;4.40;2.40;;;;;;;25.70;28.87;96527.22;4971193;28;20041;-70
2021/01/15 02:58:47;;;;;;;9.27;2.60;;;;;;;25.70;28.66;96522.84;4985836;28;20037;-68
2021/01/15 03:01:13;;;;;;;4.57;2.05;;;;;;;25.70;28.47;96514.09;4982844;28;20450;-69
2021/01/15 03:03:50;;;;;;;3.60;1.95;;;;;;;25.63;28.47;96518.03;4970521;28;20040;-70
2021/01/15 03:06:28;;;;;;;6.93;2.40;;;;;;;25.69;28.45;96528.16;4987162;28;20041;-71
2021/01/15 03:08:53;;;;;;;4.25;2.10;;;;;;;25.69;28.55;96533.41;4993293;28;20502;-70
2021/01/15 03:11:19;;;;;;;4.20;2.20;;;;;;;25.69;28.26;96529.03;4973133;28;20048;-70
2021/01/15 03:13:44;;;;;;;4.38;2.28;;;;;;;25.69;28.47;96533.41;4969887;28;20049;-69
2021/01/15 03:16:09;;;;;;;3.50;1.92;;;;;;;25.65;28.48;96524.03;4969002;28;20423;-70
2021/01/15 03:18:35;;;;;;;4.68;2.10;;;;;;;25.67;28.41;96533.50;4971430;28;20068;-68
2021/01/15 03:21:01;;;;;;;3.63;1.92;;;;;;;25.67;28.34;96525.63;4970164;28;20223;-69
2021/01/15 03:23:26;;;;;;;3.92;2.00;;;;;;;25.67;28.17;96530.06;4998483;28;20052;-68
2021/01/15 03:25:52;;;;;;;4.65;2.20;;;;;;;25.67;28.44;96537.94;4969533;28;20482;-69
2021/01/15 03:28:17;;;;;;;2.78;1.80;;;;;;;25.64;28.36;96527.59;4969912;28;20521;-70
2021/01/15 03:30:43;;;;;;;3.10;2.00;;;;;;;25.67;28.50;96536.13;4971227;28;20045;-68
2021/01/15 03:33:08;;;;;;;4.97;1.98;;;;;;;25.70;28.45;96529.84;4976722;28;20742;-68
2021/01/15 03:35:34;;;;;;;3.03;1.98;;;;;;;25.71;28.46;96531.56;4971303;28;20067;-70
2021/01/15 03:38:03;;;;;;;2.97;1.73;;;;;;;25.70;28.29;96530.72;4981723;28;20049;-70
2021/01/15 03:40:30;;;;;;;2.58;1.77;;;;;;;25.68;28.25;96536.97;4983042;28;20034;-69
2021/01/15 03:42:55;;;;;;;5.30;2.10;;;;;;;25.72;28.42;96540.28;4981299;28;20034;-69
2021/01/15 03:45:21;;;;;;;2.92;1.90;;;;;;;25.64;28.51;96535.47;4979238;28;20047;-68
2021/01/15 03:47:47;;;;;;;3.78;1.88;;;;;;;25.55;28.35;96527.16;4969061;28;23056;-68
2021/01/15 03:50:12;;;;;;;2.88;1.60;;;;;;;25.73;28.30;96552.50;4983635;28;20047;-70
2021/01/15 03:52:38;;;;;;;2.80;1.63;;;;;;;25.72;28.26;96553.41;4970325;28;20814;-70
2021/01/15 03:55:07;;;;;;;2.95;1.80;;;;;;;25.70;28.35;96556.97;4983290;28;20045;-70
2021/01/15 03:57:33;;;;;;;3.05;1.80;;;;;;;25.62;28.49;96543.41;4970786;28;20091;-70
2021/01/15 04:00:10;;;;;;;3.25;1.90;;;;;;;25.67;28.11;96554.50;4986002;28;20044;-68
2021/01/15 04:02:44;;;;;;;2.30;1.40;;;;;;;25.67;28.17;96564.16;4985623;28;20306;-68
2021/01/15 04:05:10;;;;;;;3.05;1.73;;;;;;;25.66;28.43;96559.84;5004422;28;20083;-68
2021/01/15 04:07:40;;;;;;;2.45;1.73;;;;;;;25.67;28.35;96561.53;4985715;28;20122;-70
2021/01/15 04:10:16;;;;;;;3.50;1.80;;;;;;;25.66;28.29;96571.19;4989121;28;20098;-68
2021/01/15 04:12:42;;;;;;;2.17;1.52;;;;;;;25.67;28.25;96574.66;4989001;28;20111;-70
2021/01/15 04:15:08;;;;;;;1.95;1.50;;;;;;;25.67;28.22;96577.28;4983907;28;20079;-69
2021/01/15 04:17:34;;;;;;;2.35;1.75;;;;;;;25.65;28.34;96576.50;4966835;28;20064;-68
2021/01/15 04:20:00;;;;;;;3.47;1.73;;;;;;;25.67;28.33;96583.38;4970042;28;20042;-69
2021/01/15 04:22:25;;;;;;;2.72;1.77;;;;;;;25.66;28.47;96579.06;4984773;28;20037;-70
2021/01/15 04:24:50;;;;;;;3.25;1.35;;;;;;;25.68;28.44;96586.84;4964973;28;20380;-70
2021/01/15 04:27:16;;;;;;;2.05;1.45;;;;;;;25.69;28.38;96580.66;4975528;28;20048;-69
2021/01/15 04:29:42;;;;;;;3.33;1.60;;;;;;;25.71;28.33;96591.94;5010003;28;20049;-70
2021/01/15 04:32:11;;;;;;;3.53;2.08;;;;;;;25.71;28.25;96586.69;4971679;28;20044;-69
2021/01/15 04:34:44;;;;;;;4.25;1.50;;;;;;;25.73;28.10;96595.31;4980737;28;20049;-70
2021/01/15 04:37:09;;;;;;;2.25;1.35;;;;;;;25.74;28.13;96599.63;4997150;28;20041;-70
2021/01/15 04:39:34;;;;;;;2.08;1.48;;;;;;;25.74;28.22;96598.78;4967146;28;20677;-71
2021/01/15 04:42:00;;;;;;;2.63;1.40;;;;;;;25.73;28.07;96603.19;4964794;28;20040;-69
2021/01/15 04:44:25;;;;;;;2.45;1.40;;;;;;;25.74;28.33;96610.13;4976970;28;20041;-69
2021/01/15 04:46:55;;;;;;;3.35;1.55;;;;;;;25.74;28.34;96610.13;4984974;28;20033;-69
2021/01/15 04:49:20;;;;;;;2.58;1.30;;;;;;;25.75;28.35;96608.34;4967799;28;20090;-70
2021/01/15 04:51:46;;;;;;;1.73;1.33;;;;;;;25.49;28.00;96579.97;4966440;28;20041;-69
2021/01/15 04:54:13;;;;;;;1.42;0.90;;;;;;;25.75;28.16;96616.22;4973329;28;20045;-71
2021/01/15 04:56:49;;;;;;;1.80;1.30;;;;;;;25.75;28.39;96619.69;4985203;28;20041;-70
2021/01/15 04:59:15;;;;;;;2.38;1.50;;;;;;;25.75;28.12;96621.47;4988031;28;20040;-70
2021/01/15 05:01:42;;;;;;;3.38;1.52;;;;;;;25.68;28.43;96621.81;4972371;28;20045;-70
2021/01/15 05:04:09;;;;;;;2.38;1.45;;;;;;;25.65;28.26;96605.38;4971020;28;20037;-70
2021/01/15 05:06:42;;;;;;;1.92;1.30;;;;;;;25.69;28.34;96617.41;4983878;28;20037;-69
2021/01/15 05:09:08;;;;;;;2.55;1.38;;;;;;;25.73;28.43;96624.16;4988300;28;20049;-68
2021/01/15 05:11:33;;;;;;;3.42;1.33;;;;;;;25.75;28.19;96634.59;5000196;28;20048;-69
2021/01/15 05:13:58;;;;;;;1.40;1.00;;;;;;;25.75;28.30;96631.97;4975398;28;20111;-71
2021/01/15 05:16:24;;;;;;;1.52;1.25;;;;;;;25.74;28.21;96631.09;4972050;28;20042;-70
2021/01/15 05:18:49;;;;;;;1.92;1.15;;;;;;;25.74;28.35;96631.09;4970983;28;20081;-70
2021/01/15 05:21:15;;;;;;;2.10;1.20;;;;;;;25.76;28.24;96633.66;4972974;28;20030;-68
2021/01/15 05:23:40;;;;;;;2.85;1.67;;;;;;;25.76;28.32;96639.75;4971216;28;20695;-70
2021/01/15 05:26:05;;;;;;;1.55;1.08;;;;;;;25.76;28.36;96638.91;4974282;28;20053;-70
2021/01/15 05:28:34;;;;;;;2.05;1.20;;;;;;;25.76;28.16;96639.75;4984175;28;20064;-70
2021/01/15 05:31:03;;;;;;;2.67;1.20;;;;;;;25.76;28.32;96652.03;4974397;28;20388;-70
2021/01/15 05:33:29;;;;;;;1.75;0.95;;;;;;;25.74;28.24;96652.09;4978237;28;20996;-71
2021/01/15 05:35:54;;;;;;;2.58;1.30;;;;;;;25.72;28.36;96653.97;4962391;28;20287;-69
2021/01/15 05:38:20;;;;;;;2.08;1.17;;;;;;;25.75;28.38;96656.44;4971258;28;20053;-71
2021/01/15 05:40:50;;;;;;;1.70;1.10;;;;;;;25.74;28.40;96662.59;4973649;28;20091;-71
2021/01/15 05:43:32;;;;;;;2.05;1.00;;;;;;;25.75;28.34;96664.31;4987961;28;20029;-69
2021/01/15 05:46:07;;;;;;;1.63;1.20;;;;;;;25.75;28.26;96668.72;4968066;28;20045;-71
2021/01/15 05:48:33;;;;;;;1.83;1.15;;;;;;;25.73;28.32;96671.41;5004421;28;20037;-71
2021/01/15 05:50:59;;;;;;;1.20;0.80;;;;;;;25.75;28.36;96673.97;5001572;28;20079;-70
2021/01/15 05:53:25;;;;;;;2.47;1.05;;;;;;;25.74;28.25;96683.59;4981792;28;20042;-70
2021/01/15 05:55:59;;;;;;;1.98;0.98;;;;;;;25.72;28.46;96679.38;4966780;28;20680;-69
2021/01/15 05:58:25;;;;;;;2.28;1.40;;;;;;;25.74;28.47;96694.09;4977834;28;20084;-70
2021/01/15 06:00:51;;;;;;;1.60;1.10;;;;;;;25.75;28.26;96687.09;4969591;28;20034;-69
2021/01/15 06:03:23;;;;;;;4.18;1.25;;;;;;;25.73;28.50;96689.78;5000691;28;20033;-69
2021/01/15 06:06:05;;;;;;;2.65;1.17;;;;;;;25.75;28.40;96693.19;4992431;28;20033;-71
2021/01/15 06:08:58;;;;;;;1.48;0.95;;;;;;;25.75;28.44;96703.69;4972003;28;20514;-70
2021/01/15 06:11:24;;;;;;;2.38;1.27;;;;;;;25.75;28.50;96706.31;4991495;28;20806;-67
2021/01/15 06:13:49;;;;;;;1.02;0.90;;;;;;;25.76;28.47;96713.25;4967210;28;20103;-70
2021/01/15 06:16:19;;;;;;;1.88;1.10;;;;;;;25.77;28.39;96719.34;4969887;28;20037;-69
2021/01/15 06:19:01;;;;;;;2.58;1.00;;;;;;;25.78;28.32;96721.88;4989625;28;20033;-68
2021/01/15 06:21:33;;;;;;;1.35;1.00;;;;;;;25.79;28.08;96720.09;4985777;28;20403;-70
2021/01/15 06:24:03;;;;;;;2.53;0.90;;;;;;;25.79;28.29;96728.84;4969330;28;20049;-70
2021/01/15 06:26:35;;;;;;;1.52;1.05;;;;;;;25.77;28.33;96735.94;4981671;28;20045;-69
2021/01/15 06:29:11;;;;;;;1.70;1.25;;;;;;;25.78;28.43;96737.63;5003861;28;20129;-67
2021/01/15 06:31:43;;;;;;;1.25;0.95;;;;;;;25.79;28.30;96739.34;4981847;28;20034;-69
2021/01/15 06:34:09;;;;;;;2.13;1.10;;;;;;;25.80;28.31;96741.03;4984899;28;20063;-68
2021/01/15 06:36:47;;;;;;;1.60;1.20;;;;;;;25.79;28.30;96755.09;4986990;28;20087;-70
2021/01/15 06:39:14;;;;;;;1.83;1.00;;;;;;;25.79;28.24;96748.97;4985472;28;20540;-69
2021/01/15 06:41:43;;;;;;;2.05;1.00;;;;;;;25.78;28.55;96753.38;4983982;28;20033;-69
2021/01/15 06:44:14;;;;;;;1.38;0.85;;;;;;;25.79;28.17;96754.22;4987934;28;20041;-69
2021/01/15 06:46:46;;;;;;;1.20;0.80;;;;;;;25.81;28.24;96755.84;4969480;28;20041;-70
2021/01/15 06:49:16;;;;;;;1.80;1.02;;;;;;;25.78;28.26;96757.81;4969197;28;20080;-70
2021/01/15 06:51:53;;;;;;;1.42;1.00;;;;;;;25.79;28.29;96770.84;4974815;28;20029;-70
2021/01/15 06:54:25;;;;;;;2.67;1.17;;;;;;;25.75;28.47;96753.56;4986870;28;20041;-69
2021/01/15 06:57:13;;;;;;;1.33;0.90;;;;;;;25.79;28.37;96770.84;4969163;28;20673;-71
2021/01/15 06:59:40;;;;;;;1.63;1.00;;;;;;;25.80;28.22;96782.19;4985610;28;20037;-70
2021/01/15 07:02:18;;;;;;;1.63;1.10;;;;;;;25.79;28.29;96781.34;4972530;28;20360;-70
2021/01/15 07:04:56;;;;;;;1.85;1.05;;;;;;;25.80;28.27;96782.19;4983942;28;20068;-70
2021/01/15 07:07:21;;;;;;;1.60;1.00;;;;;;;25.68;28.14;96773.19;4986221;28;20459;-70
2021/01/15 07:09:47;;;;;;;1.45;1.10;;;;;;;25.64;28.16;96767.25;4969308;28;20136;-69
2021/01/15 07:12:17;;;;;;;2.00;1.00;;;;;;;25.78;28.18;96791.91;4969409;28;20564;-71
2021/01/15 07:14:47;;;;;;;1.52;1.10;;;;;;;25.82;28.30;96796.91;4967280;28;20510;-71
2021/01/15 07:17:17;;;;;;;2.28;1.15;;;;;;;25.81;28.25;96792.59;4984594;28;21441;-71
2021/01/15 07:19:44;;;;;;;1.48;0.95;;;;;;;25.81;28.32;96800.47;4987053;28;20065;-70
2021/01/15 07:22:10;;;;;;;2.25;1.17;;;;;;;25.81;28.19;96805.72;4968548;28;20124;-68
2021/01/15 07:24:37;;;;;;;1.77;0.95;;;;;;;25.81;28.10;96808.34;4985378;28;20037;-70
2021/01/15 07:27:04;;;;;;;1.58;0.90;;;;;;;25.81;28.32;96810.97;4968458;28;20334;-69
2021/01/15 07:29:32;;;;;;;1.63;1.30;;;;;;;25.82;28.32;96812.66;4969844;28;20044;-69
2021/01/15 07:32:01;;;;;;;1.17;1.00;;;;;;;25.85;28.12;96821.31;4984000;28;20042;-70
2021/01/15 07:34:27;;;;;;;2.17;1.35;;;;;;;25.85;28.23;96827.41;5015108;28;20033;-70
2021/01/15 07:36:52;;;;;;;1.58;1.00;;;;;;;25.86;28.33;96829.13;4972786;28;20056;-69
2021/01/15 07:39:19;;;;;;;2.80;1.30;;;;;;;25.86;28.33;96829.13;4969386;28;20094;-69
2021/01/15 07:41:48;;;;;;;1.55;1.05;;;;;;;25.88;28.29;96831.63;4971492;28;20037;-70
2021/01/15 07:44:22;;;;;;;1.60;0.90;;;;;;;25.88;28.19;96827.25;4993443;28;20064;-70
2021/01/15 07:46:48;;;;;;;2.88;1.15;;;;;;;25.89;28.15;96835.97;5018412;28;20048;-70
2021/01/15 07:49:14;;;;;;;1.52;1.02;;;;;;;25.89;28.25;96838.59;4988590;28;20051;-70
2021/01/15 07:51:39;;;;;;;1.30;0.93;;;;;;;25.87;28.23;96840.44;4967644;28;20037;-68
2021/01/15 07:54:05;;;;;;;2.53;1.35;;;;;;;25.88;28.04;96847.38;4967668;28;20037;-68
2021/01/15 07:56:31;;;;;;;1.85;1.27;;;;;;;25.87;27.95;96846.56;4980811;28;20419;-68
2021/01/15 07:58:56;;;;;;;5.57;2.00;;;;;;;25.88;26.71;96850.00;4970376;28;20041;-70
2021/01/15 08:01:22;;;;;;;4.93;1.60;;;;;;;25.89;27.50;96854.34;4966231;28;20499;-69
2021/01/15 08:03:56;;;;;;;10.27;2.08;;;;;;;25.86;26.65;96865.88;4963616;28;20052;-70
2021/01/15 08:06:22;;;;;;;7.45;1.48;;;;;;;25.83;27.49;96874.72;4984657;28;20021;-70
2021/01/15 08:09:06;;;;;;;4.07;1.73;;;;;;;25.80;26.47;96872.28;4965000;28;20033;-70
2021/01/15 08:11:36;;;;;;;10.52;2.90;;;;;;;25.78;23.56;96879.38;4979304;28;21395;-69
2021/01/15 08:14:14;;;;;;;12.30;2.55;;;;;;;25.72;23.76;96879.69;4983232;28;20124;-69
2021/01/15 08:16:46;;;;;;;5.15;2.25;;;;;;;25.68;24.20;96880.78;4980134;28;20040;-68
2021/01/15 08:19:13;;;;;;;7.53;2.63;;;;;;;25.65;24.56;96883.56;4979399;28;20772;-69
2021/01/15 08:21:40;;;;;;;10.88;2.25;;;;;;;25.60;24.58;96890.81;4970392;28;20041;-69
2021/01/15 08:24:06;;;;;;;3.83;1.75;;;;;;;25.54;24.29;96892.81;4980556;28;20162;-69
2021/01/15 08:26:43;;;;;;;9.20;2.33;;;;;;;25.49;24.42;96892.19;4969650;28;20072;-69
2021/01/15 08:29:09;;;;;;;3.38;2.10;;;;;;;25.43;24.35;96903.84;5013911;28;20045;-69
2021/01/15 08:31:34;;;;;;;7.32;2.53;;;;;;;25.39;24.25;96904.03;4971486;28;20045;-70
2021/01/15 08:34:16;;;;;;;3.35;2.13;;;;;;;25.35;24.73;96907.78;4969672;28;20045;-70
2021/01/15 08:36:47;;;;;;;7.00;2.60;;;;;;;25.27;24.71;96916.88;4972333;28;20041;-71
2021/01/15 08:39:13;;;;;;;6.63;2.70;;;;;;;25.20;24.91;96915.44;4987812;28;20186;-71
2021/01/15 08:41:39;;;;;;;4.32;2.40;;;;;;;25.16;25.12;96916.53;4968142;28;20127;-71
2021/01/15 08:44:05;;;;;;;5.88;2.33;;;;;;;25.14;24.66;96921.84;4996187;28;20045;-72
2021/01/15 08:46:31;;;;;;;5.15;2.50;;;;;;;25.12;24.87;96928.09;4969724;28;20068;-71
2021/01/15 08:48:57;;;;;;;7.47;2.50;;;;;;;25.08;24.91;96929.16;4968470;28;20262;-71
2021/01/15 08:51:25;;;;;;;6.82;2.58;;;;;;;25.07;25.06;96932.69;4972262;28;21072;-71
2021/01/15 08:54:04;;;;;;;2.70;1.80;;;;;;;25.10;27.22;96941.28;4982275;28;20044;-72
2021/01/15 08:56:41;;;;;;;9.40;1.70;;;;;;;25.15;27.65;96938.44;4985180;28;20415;-70
2021/01/15 08:59:08;;;;;;;1.88;1.40;;;;;;;25.20;27.87;96941.69;4967508;28;20037;-71
2021/01/15 09:01:35;;;;;;;2.40;1.40;;;;;;;25.23;28.20;96946.78;4982787;28;20060;-68
2021/01/15 09:04:05;;;;;;;4.20;1.55;;;;;;;25.28;28.04;96949.19;4980632;28;20040;-70
2021/01/15 09:06:31;;;;;;;3.60;1.40;;;;;;;25.33;28.17;96948.97;4998270;28;20607;-68
2021/01/15 09:08:57;;;;;;;2.78;1.42;;;;;;;25.36;28.26;96952.28;4998509;28;20053;-71
2021/01/15 09:11:28;;;;;;;3.17;1.48;;;;;;;25.36;28.26;96947.03;4985906;28;20022;-71
2021/01/15 09:13:53;;;;;;;2.92;1.30;;;;;;;25.45;28.20;96961.47;4983021;28;20037;-68
2021/01/15 09:16:21;;;;;;;1.55;1.30;;;;;;;25.47;28.36;96962.25;4979433;28;21272;-71
2021/01/15 09:18:47;;;;;;;3.33;1.50;;;;;;;25.51;28.38;96969.03;5002172;28;20148;-70
2021/01/15 09:21:12;;;;;;;3.45;1.23;;;;;;;25.53;28.38;96967.22;4971239;28;20483;-70
2021/01/15 09:23:38;;;;;;;6.57;1.60;;;;;;;25.57;28.28;96970.56;4968160;28;20045;-70
2021/01/15 09:26:03;;;;;;;4.07;1.38;;;;;;;25.60;28.44;96980.03;4968353;28;20029;-69
2021/01/15 09:28:29;;;;;;;3.17;1.08;;;;;;;25.63;28.44;96979.91;4966921;28;20128;-71
2021/01/15 09:30:54;;;;;;;2.50;1.40;;;;;;;25.66;28.27;96979.75;4965168;28;20137;-70
2021/01/15 09:33:19;;;;;;;1.33;1.10;;;;;;;25.67;28.28;96977.03;4971302;28;20037;-69
2021/01/15 09:35:51;;;;;;;3.38;1.77;;;;;;;25.72;27.88;96982.06;4986484;28;20039;-70
2021/01/15 09:38:17;;;;;;;13.05;2.05;;;;;;;25.76;26.94;96981.00;4983605;28;20072;-69
2021/01/15 09:40:43;;;;;;;3.92;1.52;;;;;;;25.79;27.64;96980.84;4968440;28;20117;-70
2021/01/15 09:43:12;;;;;;;4.88;1.50;;;;;;;25.85;27.69;96982.28;4983021;28;20550;-70
2021/01/15 09:45:37;;;;;;;2.75;1.40;;;;;;;25.89;27.49;96988.25;4982855;28;20034;-71
2021/01/15 09:48:07;;;;;;;2.17;1.30;;;;;;;25.92;26.99;96991.56;4979323;28;20041;-70
2021/01/15 09:50:32;;;;;;;5.45;2.05;;;;;;;25.99;27.04;96989.47;4969597;28;20657;-68
2021/01/15 09:52:58;;;;;;;2.25;1.30;;;;;;;26.03;27.04;96998.91;4981087;28;20072;-71
2021/01/15 09:55:23;;;;;;;5.50;1.63;;;;;;;26.05;27.26;96997.03;4966605;28;20095;-70
2021/01/15 09:57:50;;;;;;;6.90;1.60;;;;;;;26.08;26.78;96996.03;4970222;28;20713;-69
2021/01/15 10:00:16;;;;;;;5.53;1.00;;;;;;;25.91;29.12;96999.50;4986378;28;20037;-69
2021/01/15 10:02:42;;;;;;;3.55;1.25;;;;;;;25.68;29.01;97007.63;4961894;28;20048;-72
2021/01/15 10:05:08;;;;;;;8.85;1.70;;;;;;;25.51;29.11;97003.16;4983436;28;20068;-71
2021/01/15 10:07:34;;;;;;;4.05;1.40;;;;;;;25.42;29.26;97009.72;4969350;28;20083;-71
2021/01/15 10:09:59;;;;;;;3.97;1.50;;;;;;;25.44;30.46;97012.25;4973574;28;20503;-74
2021/01/15 10:12:25;;;;;;;3.22;1.60;;;;;;;25.54;30.02;97000.38;4969818;28;20767;-77
2021/01/15 10:14:50;;;;;;;4.40;1.52;;;;;;;25.77;29.92;97014.19;4965208;28;20045;-72
2021/01/15 10:17:15;;;;;;;9.82;1.60;;;;;;;25.89;29.41;97012.72;4966675;28;20045;-70
2021/01/15 10:19:41;;;;;;;5.07;1.45;;;;;;;26.01;30.25;97021.75;4962016;28;20044;-74
2021/01/15 10:22:14;;;;;;;6.30;1.88;;;;;;;26.19;31.24;97012.09;4963806;28;20731;-73
2021/01/15 10:24:40;;;;;;;11.35;2.15;;;;;;;26.41;30.91;97018.03;4998363;28;20041;-71
2021/01/15 10:27:08;;;;;;;7.68;2.10;;;;;;;26.58;30.62;97020.63;4964925;28;20478;-71
2021/01/15 10:29:37;;;;;;;11.63;2.20;;;;;;;26.72;28.98;97026.94;5000132;28;20054;-70
2021/01/15 10:32:08;;;;;;;4.72;2.17;;;;;;;26.78;28.73;97031.88;4987849;28;20038;-69
2021/01/15 10:34:33;;;;;;;4.40;1.70;;;;;;;26.81;28.40;97029.06;4994552;28;20128;-69
2021/01/15 10:36:59;;;;;;;6.93;1.92;;;;;;;26.80;28.61;97030.00;4966221;28;20045;-70
2021/01/15 10:39:28;;;;;;;4.95;1.58;;;;;;;26.81;28.49;97036.94;4982054;28;20033;-70
2021/01/15 10:41:53;;;;;;;8.85;1.83;;;;;;;26.82;28.41;97022.91;4998037;28;20112;-70
2021/01/15 10:44:22;;;;;;;5.80;1.90;;;;;;;26.83;28.53;97029.00;4967499;28;20034;-69
2021/01/15 10:46:50;;;;;;;3.33;1.70;;;;;;;26.84;28.52;97031.53;4986715;28;20095;-69
2021/01/15 10:49:19;;;;;;;3.35;1.60;;;;;;;26.87;28.36;97020.88;4981272;28;20048;-69
2021/01/15 10:51:52;;;;;;;5.05;1.60;;;;;;;26.94;28.27;97031.03;4956746;28;20571;-69
2021/01/15 10:54:17;;;;;;;3.67;1.50;;;;;;;27.00;28.27;97028.09;4961380;28;20045;-70
2021/01/15 10:56:47;;;;;;;3.97;1.55;;;;;;;27.04;28.26;97031.44;4949306;28;20056;-70
2021/01/15 10:59:13;;;;;;;4.68;1.27;;;;;;;27.06;28.18;97033.03;4949603;28;20095;-70
2021/01/15 11:01:39;;;;;;;2.38;1.40;;;;;;;27.07;28.11;97032.09;4958544;28;20084;-71
2021/01/15 11:04:08;;;;;;;5.00;1.65;;;;;;;27.07;28.34;97034.72;4968419;28;20041;-71
2021/01/15 11:06:40;;;;;;;2.05;1.45;;;;;;;27.07;27.89;97029.47;4980223;28;20038;-69
2021/01/15 11:09:06;;;;;;;3.47;1.58;;;;;;;27.12;27.21;97043.22;4968729;28;20041;-71
2021/01/15 11:11:36;;;;;;;5.32;1.42;;;;;;;27.17;27.28;97032.47;4963725;28;20137;-70
2021/01/15 11:14:02;;;;;;;4.05;1.50;;;;;;;27.23;27.12;97036.53;4983182;28;20042;-70
2021/01/15 11:16:32;;;;;;;8.80;1.50;;;;;;;27.22;27.38;97025.16;4964441;28;20048;-70
2021/01/15 11:19:00;;;;;;;4.72;1.75;;;;;;;27.26;27.48;97029.31;4990627;28;20044;-71
2021/01/15 11:21:26;;;;;;;3.83;1.38;;;;;;;27.32;27.27;97036.03;4984539;28;20037;-70
2021/01/15 11:23:53;;;;;;;4.07;1.45;;;;;;;27.26;26.96;97023.19;4967859;28;20045;-70
2021/01/15 11:26:25;;;;;;;5.07;1.52;;;;;;;27.38;26.90;97040.94;4978039;28;20049;-70
2021/01/15 11:28:52;;;;;;;4.18;1.58;;;;;;;27.32;26.94;97045.69;4962752;28;20418;-71
2021/01/15 11:31:18;;;;;;;5.07;1.50;;;;;;;27.24;27.14;97049.59;4982378;28;20076;-70
2021/01/15 11:33:43;;;;;;;3.67;1.40;;;;;;;27.19;27.57;97041.09;4981429;28;20514;-70
2021/01/15 11:36:12;;;;;;;4.43;1.65;;;;;;;27.17;27.60;97042.13;4962883;28;20037;-70
2021/01/15 11:38:38;;;;;;;2.13;1.30;;;;;;;27.15;27.80;97039.56;4966455;28;20041;-70
2021/01/15 11:41:04;;;;;;;3.70;1.35;;;;;;;26.96;27.76;97002.94;4966009;28;20033;-70
2021/01/15 11:43:34;;;;;;;3.25;1.40;;;;;;;27.11;27.89;97033.63;4968721;28;20836;-70